Time;durP1;ratioP1;P1;durP2;ratioP2;P2;SDS_P1;SDS_P2;PMS_P1;PMS_P2;Temp;Humidity;BMP_temperature;BMP_pressure;BME280_temperature;BME280_humidity;BME280_pressure;Samples;Min_cycle;Max_cycle;Signal;HPM_P1;HPM_P2
2022/10/16 00:00:43;;;;;;;1999.90;999.90;;;;;;;10.82;100.00;98316.13;4990742;28;20053;-73
2022/10/16 00:03:09;;;;;;;1999.90;999.90;;;;;;;10.69;100.00;98309.41;4991067;28;20061;-74
2022/10/16 00:05:40;;;;;;;1999.90;999.90;;;;;;;10.84;100.00;98313.94;4993080;28;20030;-74
2022/10/16 00:08:06;;;;;;;1999.90;999.90;;;;;;;10.67;100.00;98312.44;4994311;28;20050;-73
2022/10/16 00:10:31;;;;;;;1999.90;999.90;;;;;;;10.62;100.00;98317.13;4992792;28;20552;-75
2022/10/16 00:12:57;;;;;;;1999.90;999.90;;;;;;;10.69;100.00;98309.41;4990867;28;20026;-74
2022/10/16 00:15:22;;;;;;;1999.90;999.90;;;;;;;10.59;100.00;98307.56;4987422;28;20030;-75
2022/10/16 00:17:47;;;;;;;1999.90;999.90;;;;;;;10.64;100.00;98309.47;4955887;29;20585;-74
2022/10/16 00:20:13;;;;;;;1999.90;999.90;;;;;;;10.79;100.00;98300.28;4956008;29;20031;-74
2022/10/16 00:22:38;;;;;;;1999.90;999.90;;;;;;;10.75;100.00;98300.88;4955944;29;20055;-73
2022/10/16 00:25:04;;;;;;;1999.90;999.90;;;;;;;10.85;100.00;98299.13;4955766;29;20108;-75
2022/10/16 00:27:29;;;;;;;1999.90;999.90;;;;;;;10.81;100.00;98306.31;4955933;29;20031;-75
2022/10/16 00:29:54;;;;;;;1999.90;999.90;;;;;;;10.80;100.00;98312.88;4955323;29;20382;-74
2022/10/16 00:32:20;;;;;;;1999.90;999.90;;;;;;;10.62;100.00;98307.00;4954968;29;20042;-75
2022/10/16 00:34:45;;;;;;;1999.90;999.90;;;;;;;10.60;100.00;98313.88;4955144;29;20027;-74
2022/10/16 00:37:11;;;;;;;1999.90;999.90;;;;;;;10.72;100.00;98312.38;4955693;29;20062;-73
2022/10/16 00:39:37;;;;;;;1999.90;999.90;;;;;;;10.61;100.00;98321.81;4955854;29;20039;-74
2022/10/16 00:42:02;;;;;;;1999.90;999.90;;;;;;;10.48;100.00;98324.38;4955517;28;20027;-75
2022/10/16 00:44:46;;;;;;;1999.90;999.90;;;;;;;10.52;100.00;98328.16;4955838;29;20023;-74
2022/10/16 00:47:21;;;;;;;1999.90;999.90;;;;;;;10.42;100.00;98334.53;4955467;29;20118;-74
2022/10/16 00:49:48;;;;;;;1999.90;999.90;;;;;;;10.44;100.00;98329.59;4955554;29;20063;-74
2022/10/16 00:52:14;;;;;;;1999.90;999.90;;;;;;;10.37;100.00;98337.28;4955439;29;20062;-75
2022/10/16 00:54:40;;;;;;;1999.90;999.90;;;;;;;10.52;100.00;98339.94;4961382;28;20030;-74
2022/10/16 00:57:06;;;;;;;1999.90;999.90;;;;;;;10.33;100.00;98341.72;4974620;28;20031;-74
2022/10/16 00:59:37;;;;;;;1999.90;999.90;;;;;;;10.25;100.00;98339.56;4974618;28;20098;-75
2022/10/16 01:02:04;;;;;;;1999.90;999.90;;;;;;;10.28;100.00;98343.63;4974394;28;20033;-74
2022/10/16 01:04:34;;;;;;;1999.90;999.90;;;;;;;10.07;100.00;98337.47;4974271;28;20058;-74
2022/10/16 01:07:12;;;;;;;1999.90;999.90;;;;;;;10.06;100.00;98339.38;4973874;28;20129;-74
2022/10/16 01:09:45;;;;;;;1999.90;999.90;;;;;;;10.13;100.00;98341.78;4974350;28;20057;-74
2022/10/16 01:12:33;;;;;;;1999.90;999.90;;;;;;;10.38;100.00;98340.84;4974421;28;20506;-72
2022/10/16 01:15:14;;;;;;;1999.90;999.90;;;;;;;10.51;100.00;98343.75;4974955;28;20049;-74
2022/10/16 01:17:52;;;;;;;1999.90;999.90;;;;;;;10.34;100.00;98342.53;4974203;28;20114;-74
2022/10/16 01:20:26;;;;;;;1999.90;999.90;;;;;;;10.61;100.00;98340.13;4974262;28;20042;-74
2022/10/16 01:23:00;;;;;;;1999.90;999.90;;;;;;;10.51;100.00;98343.75;4972770;28;20037;-73
2022/10/16 01:25:50;;;;;;;1999.90;999.90;;;;;;;10.42;100.00;98342.72;4974042;28;20133;-74
2022/10/16 01:28:21;;;;;;;1999.90;999.90;;;;;;;10.32;100.00;98345.53;4974159;28;20034;-74
2022/10/16 01:30:50;;;;;;;1999.90;999.90;;;;;;;10.28;100.00;98339.00;4974190;28;20035;-74
2022/10/16 01:33:24;;;;;;;1999.90;999.90;;;;;;;10.27;100.00;98348.31;4974168;28;20031;-75
2022/10/16 01:35:57;;;;;;;1999.90;999.90;;;;;;;10.45;100.00;98335.88;4982745;28;20034;-75
2022/10/16 01:38:33;;;;;;;1999.90;999.90;;;;;;;10.23;100.00;98341.78;4983666;28;20121;-75
2022/10/16 01:41:01;;;;;;;;;;;;;;;10.10;100.00;98348.66;4976079;28;20066;-76
2022/10/16 01:43:36;;;;;;;1999.90;999.90;;;;;;;10.06;100.00;98352.22;4975771;28;19914;-74
2022/10/16 01:46:01;;;;;;;1999.90;999.90;;;;;;;10.07;100.00;98348.41;4973979;28;20034;-74
2022/10/16 01:48:29;;;;;;;1999.90;999.90;;;;;;;10.03;100.00;98342.66;4973803;28;20134;-75
2022/10/16 01:51:04;;;;;;;1999.90;999.90;;;;;;;9.88;100.00;98344.66;4973667;28;20023;-73
2022/10/16 01:53:31;;;;;;;1999.90;999.90;;;;;;;9.95;100.00;98361.59;4973743;28;20046;-74
2022/10/16 01:55:58;;;;;;;1999.90;999.90;;;;;;;9.92;100.00;98351.22;4973721;28;20046;-75
2022/10/16 01:58:25;;;;;;;1999.90;999.90;;;;;;;9.96;100.00;98360.50;4973372;28;20034;-75
2022/10/16 02:00:54;;;;;;;1999.90;999.90;;;;;;;9.96;100.00;98365.97;4973555;28;20058;-75
2022/10/16 02:03:20;;;;;;;1999.90;999.90;;;;;;;9.95;100.00;98364.31;4973106;28;20027;-74
2022/10/16 02:05:50;;;;;;;1999.90;999.90;;;;;;;10.03;100.00;98358.25;4973292;28;20119;-75
2022/10/16 02:08:15;;;;;;;1999.90;999.90;;;;;;;9.93;100.00;98363.78;4971725;28;20479;-74
2022/10/16 02:10:41;;;;;;;1999.90;999.90;;;;;;;9.92;100.00;98359.41;4974045;28;20046;-75
2022/10/16 02:13:13;;;;;;;1999.90;999.90;;;;;;;9.90;100.00;98359.69;4974411;28;20046;-75
2022/10/16 02:15:38;;;;;;;1999.90;999.90;;;;;;;9.90;100.00;98359.69;4974585;28;20428;-75
2022/10/16 02:18:06;;;;;;;1999.90;999.90;;;;;;;9.87;100.00;98354.78;4973724;28;20035;-74
2022/10/16 02:20:55;;;;;;;1999.90;999.90;;;;;;;9.91;100.00;98364.06;4973153;28;20117;-74
2022/10/16 02:23:37;;;;;;;1999.90;999.90;;;;;;;9.86;100.00;98368.72;4972944;28;20066;-74
2022/10/16 02:26:06;;;;;;;1999.90;999.90;;;;;;;9.84;100.00;98366.25;4972734;28;20066;-75
2022/10/16 02:28:42;;;;;;;1999.90;999.90;;;;;;;9.93;100.00;98374.72;4971594;28;20034;-75
2022/10/16 02:31:11;;;;;;;1999.90;999.90;;;;;;;10.04;100.00;98371.66;4972648;28;20485;-74
2022/10/16 02:33:39;;;;;;;1999.90;999.90;;;;;;;10.06;100.00;98374.91;4972759;28;20039;-73
2022/10/16 02:36:05;;;;;;;1999.90;999.90;;;;;;;9.95;100.00;98373.34;4972748;28;20027;-74
2022/10/16 02:38:31;;;;;;;1999.90;999.90;;;;;;;9.88;100.00;98366.53;4972117;28;20380;-74
2022/10/16 02:40:57;;;;;;;1999.90;999.90;;;;;;;9.71;100.00;98372.31;4972739;28;20038;-75
2022/10/16 02:43:22;;;;;;;1999.90;999.90;;;;;;;9.98;100.00;98377.41;4972628;28;20038;-75
2022/10/16 02:45:47;;;;;;;1999.90;999.90;;;;;;;9.79;100.00;98379.13;4972901;28;20039;-76
2022/10/16 02:48:13;;;;;;;1999.90;999.90;;;;;;;9.73;100.00;98369.34;4972630;28;20035;-75
2022/10/16 02:50:38;;;;;;;1999.90;999.90;;;;;;;9.91;100.00;98382.34;4972564;28;20550;-74
2022/10/16 02:53:03;;;;;;;1999.90;999.90;;;;;;;9.92;100.00;98386.75;4972038;28;20068;-75
2022/10/16 02:55:29;;;;;;;1999.90;999.90;;;;;;;9.99;100.00;98385.31;4972562;28;20023;-74
2022/10/16 02:57:55;;;;;;;1999.90;999.90;;;;;;;9.99;100.00;98385.31;4972193;28;20041;-74
2022/10/16 03:00:20;;;;;;;1999.90;999.90;;;;;;;9.99;100.00;98392.72;4972189;28;20054;-75
2022/10/16 03:02:46;;;;;;;1999.90;999.90;;;;;;;10.05;100.00;98388.88;4972318;28;20070;-74
2022/10/16 03:05:12;;;;;;;1999.90;999.90;;;;;;;10.08;100.00;98396.50;4972268;28;20042;-74
2022/10/16 03:07:38;;;;;;;1999.90;999.90;;;;;;;9.98;100.00;98391.06;4972161;28;20055;-76
2022/10/16 03:10:04;;;;;;;1999.90;999.90;;;;;;;9.82;100.00;98394.97;4961195;28;20038;-74
2022/10/16 03:12:29;;;;;;;1999.90;999.90;;;;;;;9.99;100.00;98381.78;4952345;29;20027;-75
2022/10/16 03:14:56;;;;;;;1999.90;999.90;;;;;;;9.73;100.00;98391.19;4956168;28;20023;-76
2022/10/16 03:17:22;;;;;;;1999.90;999.90;;;;;;;9.73;100.00;98389.28;4971956;28;20082;-75
2022/10/16 03:19:47;;;;;;;1999.90;999.90;;;;;;;9.79;100.00;98395.53;4971834;28;20476;-76
2022/10/16 03:22:13;;;;;;;1999.90;999.90;;;;;;;9.87;100.00;98397.66;4971688;28;20114;-75
2022/10/16 03:24:38;;;;;;;1999.90;999.90;;;;;;;9.71;100.00;98402.38;4971694;28;20097;-74
2022/10/16 03:27:03;;;;;;;1999.90;999.90;;;;;;;9.80;100.00;98399.91;4968336;28;20113;-75
2022/10/16 03:29:29;;;;;;;1999.90;999.90;;;;;;;9.87;100.00;98393.03;4952462;29;20508;-75
2022/10/16 03:31:55;;;;;;;1999.90;999.90;;;;;;;9.99;100.00;98398.19;4954572;28;20533;-75
2022/10/16 03:34:21;;;;;;;1999.90;999.90;;;;;;;9.87;100.00;98403.97;4985323;28;20018;-75
2022/10/16 03:36:47;;;;;;;1999.90;999.90;;;;;;;9.99;100.00;98393.50;4977220;28;20102;-76
2022/10/16 03:39:12;;;;;;;1999.90;999.90;;;;;;;9.99;100.00;98398.19;4976982;28;20284;-76
2022/10/16 03:41:37;;;;;;;1999.90;999.90;;;;;;;10.05;100.00;98394.34;4991301;28;20482;-76
2022/10/16 03:44:03;;;;;;;1999.90;999.90;;;;;;;9.85;100.00;98397.97;4990659;28;20038;-76
2022/10/16 03:46:29;;;;;;;1999.90;999.90;;;;;;;9.70;100.00;98406.22;4996782;28;20405;-75
2022/10/16 03:48:54;;;;;;;1999.90;999.90;;;;;;;9.53;100.00;98403.81;4994692;28;20038;-75
2022/10/16 03:51:20;;;;;;;1999.90;999.90;;;;;;;9.44;100.00;98402.75;4994263;28;20049;-75
2022/10/16 03:53:45;;;;;;;1999.90;999.90;;;;;;;9.34;100.00;98405.50;4994470;28;20104;-74
2022/10/16 03:56:10;;;;;;;1999.90;999.90;;;;;;;9.55;100.00;98412.53;4994494;28;20076;-75
2022/10/16 03:58:35;;;;;;;1999.90;999.90;;;;;;;9.48;100.00;98412.03;4994907;28;20498;-75
2022/10/16 04:01:01;;;;;;;1999.90;999.90;;;;;;;9.39;100.00;98410.97;4994963;28;20480;-75
2022/10/16 04:03:26;;;;;;;1999.90;999.90;;;;;;;9.57;100.00;98412.25;4994622;28;20034;-74
2022/10/16 04:05:52;;;;;;;1999.90;999.90;;;;;;;9.53;100.00;98412.00;4994839;28;20030;-75
2022/10/16 04:08:18;;;;;;;1999.90;999.90;;;;;;;9.51;100.00;98416.94;4994640;28;20046;-75
2022/10/16 04:10:43;;;;;;;1999.90;999.90;;;;;;;9.34;100.00;98421.88;4994457;28;20472;-74
2022/10/16 04:13:09;;;;;;;1999.90;999.90;;;;;;;9.33;100.00;98420.25;4994664;28;20022;-75
2022/10/16 04:15:34;;;;;;;1999.90;999.90;;;;;;;9.68;100.00;98411.13;4994941;28;20104;-75
2022/10/16 04:17:59;;;;;;;1999.90;999.90;;;;;;;9.71;100.00;98409.78;4994694;28;20483;-75
2022/10/16 04:20:25;;;;;;;1999.90;999.90;;;;;;;9.62;100.00;98401.31;4994444;28;20507;-74
2022/10/16 04:22:50;;;;;;;1999.90;999.90;;;;;;;9.49;100.00;98413.63;4994479;28;20038;-75
2022/10/16 04:25:16;;;;;;;1999.90;999.90;;;;;;;9.42;100.00;98417.78;4993117;28;20031;-75
2022/10/16 04:27:41;;;;;;;1999.90;999.90;;;;;;;9.37;100.00;98410.41;4994317;28;20030;-73
2022/10/16 04:30:07;;;;;;;1999.90;999.90;;;;;;;9.69;100.00;98418.22;4993139;28;20579;-75
2022/10/16 04:32:32;;;;;;;1999.90;999.90;;;;;;;9.59;100.00;98410.06;4994288;28;20011;-75
2022/10/16 04:34:57;;;;;;;1999.90;999.90;;;;;;;9.62;100.00;98418.53;4979125;28;20089;-76
2022/10/16 04:37:26;;;;;;;1999.90;999.90;;;;;;;9.47;100.00;98421.31;4975070;28;20033;-75
2022/10/16 04:39:52;;;;;;;1999.90;999.90;;;;;;;9.46;100.00;98413.41;4974916;28;20015;-76
2022/10/16 04:42:18;;;;;;;1999.90;999.90;;;;;;;9.49;100.00;98427.28;4974818;28;20070;-75
2022/10/16 04:44:43;;;;;;;1999.90;999.90;;;;;;;9.80;100.00;98430.78;4974739;28;20059;-75
2022/10/16 04:47:08;;;;;;;1999.90;999.90;;;;;;;9.83;100.00;98434.88;4975059;28;20034;-75
2022/10/16 04:49:34;;;;;;;1999.90;999.90;;;;;;;9.88;100.00;98432.94;4974561;28;20058;-75
2022/10/16 04:51:59;;;;;;;1999.90;999.90;;;;;;;9.99;100.00;98429.03;4974594;28;20113;-75
2022/10/16 04:54:25;;;;;;;1999.90;999.90;;;;;;;9.79;100.00;98422.84;4974326;28;20057;-75
2022/10/16 04:56:51;;;;;;;1999.90;999.90;;;;;;;9.77;100.00;98419.59;4974734;28;20031;-75
2022/10/16 04:59:18;;;;;;;1999.90;999.90;;;;;;;9.81;100.00;98423.38;4974409;28;20436;-75
2022/10/16 05:01:44;;;;;;;1999.90;999.90;;;;;;;9.66;100.00;98421.53;4974277;28;20101;-75
2022/10/16 05:04:09;;;;;;;1999.90;999.90;;;;;;;9.56;100.00;98422.38;4974478;28;20034;-76
2022/10/16 05:06:36;;;;;;;1999.90;999.90;;;;;;;9.59;100.00;98421.00;4974243;28;20031;-75
2022/10/16 05:09:01;;;;;;;1999.90;999.90;;;;;;;9.82;100.00;98419.56;4974385;28;20058;-75
2022/10/16 05:11:27;;;;;;;1999.90;999.90;;;;;;;9.93;100.00;98418.44;4974276;28;20058;-74
2022/10/16 05:13:52;;;;;;;1999.90;999.90;;;;;;;9.90;100.00;98419.00;4974548;28;20046;-76
2022/10/16 05:16:18;;;;;;;1999.90;999.90;;;;;;;10.00;100.00;98421.66;4974774;28;20030;-75
2022/10/16 05:18:43;;;;;;;1999.90;999.90;;;;;;;9.81;100.00;98426.09;4973905;28;20162;-76
2022/10/16 05:21:08;;;;;;;1999.90;999.90;;;;;;;9.69;100.00;98419.06;4973292;28;20113;-75
2022/10/16 05:23:34;;;;;;;1999.90;999.90;;;;;;;9.63;100.00;98425.63;4974053;28;20050;-76
2022/10/16 05:26:00;;;;;;;1999.90;999.90;;;;;;;9.54;100.00;98426.47;4974014;28;20072;-75
2022/10/16 05:28:27;;;;;;;1999.90;999.90;;;;;;;9.46;100.00;98427.84;4974228;28;20495;-76
2022/10/16 05:30:53;;;;;;;1999.90;999.90;;;;;;;9.53;100.00;98436.56;4974077;28;20035;-73
2022/10/16 05:33:23;;;;;;;1999.90;999.90;;;;;;;9.50;100.00;98436.31;4973963;28;20037;-75
2022/10/16 05:35:49;;;;;;;1999.90;999.90;;;;;;;9.50;100.00;98436.31;4973750;28;20058;-76
2022/10/16 05:38:15;;;;;;;1999.90;999.90;;;;;;;9.55;100.00;98439.84;4973919;28;20038;-76
2022/10/16 05:40:41;;;;;;;1999.90;999.90;;;;;;;9.60;100.00;98444.47;4973603;28;20029;-75
2022/10/16 05:43:06;;;;;;;1999.90;999.90;;;;;;;9.56;100.00;98441.47;4973920;28;20026;-75
2022/10/16 05:45:31;;;;;;;1999.90;999.90;;;;;;;9.56;100.00;98440.66;4974205;28;20488;-76
2022/10/16 05:47:57;;;;;;;1999.90;999.90;;;;;;;9.54;100.00;98446.41;4991924;28;20037;-75
2022/10/16 05:50:22;;;;;;;1999.90;999.90;;;;;;;9.53;100.00;98441.22;4993191;28;20042;-75
2022/10/16 05:52:47;;;;;;;1999.90;999.90;;;;;;;9.49;100.00;98457.31;4992856;28;20051;-75
2022/10/16 05:55:13;;;;;;;1999.90;999.90;;;;;;;9.54;100.00;98457.34;4994833;28;20484;-76
2022/10/16 05:57:38;;;;;;;1999.90;999.90;;;;;;;9.61;100.00;98460.59;5000252;28;20117;-76
2022/10/16 06:00:05;;;;;;;1999.90;999.90;;;;;;;9.62;100.00;98462.22;4995530;28;20038;-76
2022/10/16 06:02:30;;;;;;;1999.90;999.90;;;;;;;9.56;100.00;98462.50;4975274;28;20031;-76
2022/10/16 06:04:57;;;;;;;1999.90;999.90;;;;;;;9.60;100.00;98475.34;4973450;28;20038;-75
2022/10/16 06:07:22;;;;;;;1999.90;999.90;;;;;;;9.64;100.00;98472.88;4971999;28;20055;-76
2022/10/16 06:09:52;;;;;;;1999.90;999.90;;;;;;;9.74;100.00;98467.41;4973300;28;20030;-75
2022/10/16 06:12:17;;;;;;;1999.90;999.90;;;;;;;9.79;100.00;98475.56;4972368;28;20480;-76
2022/10/16 06:14:44;;;;;;;1999.90;999.90;;;;;;;9.74;100.00;98480.25;4973442;28;20038;-75
2022/10/16 06:17:09;;;;;;;1999.90;999.90;;;;;;;9.74;100.00;98481.06;4973776;28;20059;-76
2022/10/16 06:19:35;;;;;;;1999.90;999.90;;;;;;;9.71;100.00;98494.47;4973224;28;20058;-76
2022/10/16 06:22:02;;;;;;;1999.90;999.90;;;;;;;9.67;100.00;98495.00;4973092;28;20029;-76
2022/10/16 06:24:27;;;;;;;1999.90;999.90;;;;;;;9.66;100.00;98498.81;4971021;28;20035;-75
2022/10/16 06:26:53;;;;;;;1999.90;999.90;;;;;;;9.68;100.00;98493.88;4970645;28;20033;-75
2022/10/16 06:29:18;;;;;;;1999.90;999.90;;;;;;;9.70;100.00;98499.09;4987636;28;20879;-75
2022/10/16 06:31:43;;;;;;;1999.90;999.90;;;;;;;9.76;100.00;98502.63;4986055;28;20616;-75
2022/10/16 06:34:11;;;;;;;1999.90;999.90;;;;;;;9.91;100.00;98494.38;4974685;28;20038;-75
2022/10/16 06:36:37;;;;;;;1999.90;999.90;;;;;;;9.93;100.00;98505.88;4977449;28;20455;-74
2022/10/16 06:39:03;;;;;;;1999.90;999.90;;;;;;;10.02;100.00;98521.41;4982734;28;20026;-75
2022/10/16 06:41:32;;;;;;;1999.90;999.90;;;;;;;10.04;100.00;98518.41;4976866;28;20061;-77
2022/10/16 06:44:00;;;;;;;1999.90;999.90;;;;;;;10.12;100.00;98521.38;4980741;28;20102;-75
2022/10/16 06:46:26;;;;;;;1999.90;999.90;;;;;;;10.32;100.00;98528.72;4979475;28;20416;-75
2022/10/16 06:48:54;;;;;;;1999.90;999.90;;;;;;;10.40;100.00;98530.06;4977046;28;20495;-74
2022/10/16 06:51:21;;;;;;;1999.90;999.90;;;;;;;10.49;100.00;98526.47;4981060;28;20062;-74
2022/10/16 06:53:49;;;;;;;1999.90;999.90;;;;;;;10.51;100.00;98532.47;4980861;28;20034;-76
2022/10/16 06:56:21;;;;;;;1999.90;999.90;;;;;;;10.41;100.00;98543.47;4978706;28;20455;-76
2022/10/16 06:58:46;;;;;;;1999.90;999.90;;;;;;;10.32;100.00;98539.66;4977976;28;20507;-75
2022/10/16 07:01:13;;;;;;;1999.90;999.90;;;;;;;10.41;100.00;98546.19;4980788;28;20035;-74
2022/10/16 07:03:40;;;;;;;1999.90;999.90;;;;;;;10.40;100.00;98544.53;4981060;28;20030;-75
2022/10/16 07:06:08;;;;;;;1999.90;999.90;;;;;;;10.45;100.00;98555.47;4969267;28;20034;-76
2022/10/16 07:08:35;;;;;;;1999.90;999.90;;;;;;;10.33;100.00;98544.03;4979775;28;20043;-78
2022/10/16 07:11:02;;;;;;;1999.90;999.90;;;;;;;10.41;100.00;98546.19;4978221;28;20725;-78
2022/10/16 07:13:27;;;;;;;1999.90;999.90;;;;;;;10.44;100.00;98550.28;4988834;28;20085;-79
2022/10/16 07:15:53;;;;;;;1999.90;999.90;;;;;;;10.46;100.00;98546.16;4986219;28;20545;-78
2022/10/16 07:18:18;;;;;;;1999.90;999.90;;;;;;;10.46;100.00;98537.94;4984027;28;20102;-79
2022/10/16 07:20:43;;;;;;;1999.90;999.90;;;;;;;10.41;100.00;98529.78;4972570;28;20035;-79
2022/10/16 07:23:09;;;;;;;1999.90;999.90;;;;;;;10.41;100.00;98535.25;4974555;28;20031;-79
2022/10/16 07:25:34;;;;;;;1999.90;999.90;;;;;;;10.32;100.00;98536.94;4976503;28;20045;-77
2022/10/16 07:27:59;;;;;;;1999.90;999.90;;;;;;;10.44;100.00;98544.81;4997303;28;20134;-79
2022/10/16 07:30:24;;;;;;;1999.90;999.90;;;;;;;10.53;100.00;98549.41;4996739;28;20045;-79
2022/10/16 07:32:50;;;;;;;1999.90;999.90;;;;;;;10.68;100.00;98554.03;4979694;28;20038;-80
2022/10/16 07:35:15;;;;;;;1999.90;999.90;;;;;;;10.92;100.00;98559.63;4971325;28;20426;-79
2022/10/16 07:37:44;;;;;;;1999.90;999.90;;;;;;;11.12;100.00;98567.72;4977162;28;20018;-79
2022/10/16 07:40:10;;;;;;;1999.90;999.90;;;;;;;11.21;100.00;98579.72;4962988;29;20091;-79
2022/10/16 07:42:35;;;;;;;1999.90;999.90;;;;;;;11.15;100.00;98575.38;4955257;29;20059;-73
2022/10/16 07:45:00;;;;;;;1999.90;999.90;;;;;;;11.10;100.00;98586.34;4952112;29;20492;-73
2022/10/16 07:47:26;;;;;;;1999.90;999.90;;;;;;;11.39;100.00;98590.00;4952658;29;20031;-73
2022/10/16 07:49:51;;;;;;;1999.90;999.90;;;;;;;11.46;100.00;98595.16;4978771;28;20041;-73
2022/10/16 07:52:16;;;;;;;1999.90;999.90;;;;;;;11.42;100.00;98594.91;4971432;28;20027;-72
2022/10/16 07:54:42;;;;;;;1999.90;999.90;;;;;;;11.65;100.00;98602.38;4970935;28;20382;-75
2022/10/16 07:57:07;;;;;;;1999.90;999.90;;;;;;;11.73;100.00;98598.25;4981244;28;20035;-73
2022/10/16 07:59:32;;;;;;;1999.90;999.90;;;;;;;11.82;100.00;98599.25;4979281;28;20038;-73
2022/10/16 08:01:57;;;;;;;1999.90;999.90;;;;;;;12.02;100.00;98606.50;4980218;28;20010;-74
2022/10/16 08:04:23;;;;;;;1999.90;999.90;;;;;;;11.89;100.00;98599.75;4981127;28;20037;-73
2022/10/16 08:06:49;;;;;;;1999.90;999.90;;;;;;;12.00;100.00;98605.94;4987104;28;20050;-79
2022/10/16 08:09:14;;;;;;;1999.90;999.90;;;;;;;12.09;100.00;98607.78;4994725;28;20026;-79
2022/10/16 08:11:39;;;;;;;1999.90;999.90;;;;;;;12.28;100.00;98618.84;4982656;28;20113;-80
2022/10/16 08:14:05;;;;;;;1999.90;999.90;;;;;;;12.32;100.00;98615.22;4984338;28;20120;-79
2022/10/16 08:16:30;;;;;;;1999.90;999.90;;;;;;;12.33;100.00;98610.56;4986740;28;20110;-79
2022/10/16 08:18:55;;;;;;;1999.90;999.90;;;;;;;12.16;100.00;98615.66;4986156;28;20037;-77
2022/10/16 08:21:25;;;;;;;1999.90;999.90;;;;;;;12.35;100.00;98624.81;4979455;28;20073;-77
2022/10/16 08:23:52;;;;;;;1999.90;999.90;;;;;;;12.35;100.00;98631.13;4975788;28;20054;-77
2022/10/16 08:26:18;;;;;;;1999.90;999.90;;;;;;;12.37;100.00;98628.09;4973686;28;20043;-77
2022/10/16 08:28:44;;;;;;;1999.90;999.90;;;;;;;12.33;100.00;98625.13;4971315;28;20086;-75
2022/10/16 08:31:15;;;;;;;1999.90;999.90;;;;;;;12.16;100.00;98621.16;4973810;28;20026;-75
2022/10/16 08:33:43;;;;;;;1999.90;999.90;;;;;;;12.29;100.00;98615.00;4979833;28;20106;-75
2022/10/16 08:36:10;;;;;;;1999.90;999.90;;;;;;;12.38;100.00;98623.41;4981872;28;21671;-76
2022/10/16 08:38:36;;;;;;;1999.90;999.90;;;;;;;12.17;100.00;98620.06;4978153;28;20030;-75
2022/10/16 08:41:36;;;;;;;1999.90;999.90;;;;;;;12.00;100.00;98622.41;4983290;28;20403;-76
2022/10/16 08:44:37;;;;;;;1999.90;999.90;;;;;;;12.58;100.00;98631.44;4980269;28;20098;-76
2022/10/16 08:47:18;;;;;;;1999.90;999.90;;;;;;;12.72;100.00;98627.69;4978588;28;20101;-73
2022/10/16 08:49:55;;;;;;;1999.90;999.90;;;;;;;12.67;100.00;98622.25;4979269;28;20030;-73
2022/10/16 08:52:20;;;;;;;1999.90;999.90;;;;;;;12.94;100.00;98626.34;4985729;28;20041;-74
2022/10/16 08:54:51;;;;;;;1999.90;999.90;;;;;;;12.54;100.00;98628.44;4980628;28;20015;-74
2022/10/16 08:57:24;;;;;;;1999.90;999.90;;;;;;;12.70;100.00;98635.41;4982606;28;20487;-74
2022/10/16 08:59:49;;;;;;;1999.90;999.90;;;;;;;12.63;100.00;98637.66;4980926;28;20476;-73
2022/10/16 09:02:37;;;;;;;1999.90;999.90;;;;;;;12.97;100.00;98631.25;4982396;28;20042;-74
2022/10/16 09:05:17;;;;;;;1999.90;999.90;;;;;;;12.95;100.00;98638.94;4979276;28;20042;-75
2022/10/16 09:07:57;;;;;;;1999.90;999.90;;;;;;;13.00;100.00;98630.66;4978106;28;20045;-74
2022/10/16 09:11:00;;;;;;;1999.90;999.90;;;;;;;12.96;100.00;98641.41;4976251;28;20031;-75
2022/10/16 09:13:39;;;;;;;1999.90;999.90;;;;;;;12.75;100.00;98632.59;4979534;28;20447;-75
2022/10/16 09:16:19;;;;;;;1999.90;999.90;;;;;;;12.94;100.00;98637.31;4979259;28;20023;-75
2022/10/16 09:19:14;;;;;;;1999.90;999.90;;;;;;;12.96;100.00;98633.16;4977944;28;20491;-75
2022/10/16 09:21:44;;;;;;;1999.90;999.90;;;;;;;12.85;100.00;98635.22;4977209;28;20027;-74
2022/10/16 09:24:15;;;;;;;1999.90;999.90;;;;;;;13.00;100.00;98642.44;4982671;28;20031;-75
2022/10/16 09:26:41;;;;;;;1999.90;999.90;;;;;;;13.22;100.00;98633.66;4974166;28;20052;-75
2022/10/16 09:29:06;;;;;;;1999.90;999.90;;;;;;;13.46;100.00;98639.94;4972912;28;20395;-75
2022/10/16 09:31:32;;;;;;;1999.90;999.90;;;;;;;14.04;100.00;98647.81;4971975;28;20050;-75
2022/10/16 09:34:00;;;;;;;1999.90;999.90;;;;;;;15.05;100.00;98649.53;4971230;28;20035;-75
2022/10/16 09:36:27;;;;;;;1999.90;999.90;;;;;;;15.69;100.00;98642.09;4971353;28;20026;-76
2022/10/16 09:39:08;;;;;;;1999.90;999.90;;;;;;;17.28;100.00;98647.53;4973144;28;20022;-76
2022/10/16 09:41:39;;;;;;;1999.90;999.90;;;;;;;18.26;100.00;98659.66;4979567;28;20027;-76
2022/10/16 09:44:19;;;;;;;1999.90;999.90;;;;;;;19.36;100.00;98664.34;4982470;28;20424;-74
2022/10/16 09:46:44;;;;;;;1999.90;999.90;;;;;;;19.53;100.00;98664.25;4981483;28;20026;-75
2022/10/16 09:49:26;;;;;;;1999.90;999.90;;;;;;;19.24;100.00;98673.38;4979509;28;20078;-74
2022/10/16 09:52:11;;;;;;;1999.90;999.90;;;;;;;19.17;100.00;98673.88;4978455;28;20494;-72
2022/10/16 09:54:36;;;;;;;1999.90;999.90;;;;;;;19.18;100.00;98661.66;4970631;28;20035;-76
2022/10/16 09:57:07;;;;;;;1999.90;999.90;;;;;;;20.19;87.74;98665.22;4971542;28;20050;-77
2022/10/16 09:59:32;;;;;;;1999.90;999.90;;;;;;;20.13;87.26;98666.56;4970521;28;20551;-74
2022/10/16 10:02:03;;;;;;;1999.90;999.90;;;;;;;20.46;84.30;98670.19;4970048;28;20034;-76
2022/10/16 10:04:39;;;;;;;1999.90;999.90;;;;;;;20.07;84.38;98665.97;4975417;28;20126;-76
2022/10/16 10:07:04;;;;;;;1999.90;999.90;;;;;;;20.88;81.00;98665.31;4970334;28;20054;-74
2022/10/16 10:09:32;;;;;;;1999.90;999.90;;;;;;;20.88;79.26;98670.88;4971070;28;20058;-76
2022/10/16 10:11:59;;;;;;;1999.90;999.90;;;;;;;20.97;76.85;98668.81;4971325;28;20027;-76
2022/10/16 10:14:27;;;;;;;1999.90;999.90;;;;;;;21.53;74.51;98660.72;4971471;28;20042;-74
2022/10/16 10:17:02;;;;;;;1999.90;999.90;;;;;;;21.38;74.15;98667.81;4980170;28;20395;-74
2022/10/16 10:19:27;;;;;;;1999.90;999.90;;;;;;;21.16;74.46;98649.63;4985843;28;20042;-74
2022/10/16 10:21:52;;;;;;;1999.90;999.90;;;;;;;21.76;71.52;98659.06;4971810;28;20035;-74
2022/10/16 10:24:19;;;;;;;1999.90;999.90;;;;;;;21.33;72.91;98654.94;4972231;28;20089;-76
2022/10/16 10:26:57;;;;;;;1999.90;999.90;;;;;;;21.18;73.58;98647.28;4981883;28;20073;-74
2022/10/16 10:29:36;;;;;;;1999.90;999.90;;;;;;;20.58;77.43;98644.41;4971887;28;20547;-75
2022/10/16 10:32:25;;;;;;;1999.90;999.90;;;;;;;20.88;75.04;98653.38;4975200;28;20034;-74
2022/10/16 10:35:21;;;;;;;1999.90;999.90;;;;;;;21.23;73.62;98649.03;4976548;28;20030;-74
2022/10/16 10:38:20;;;;;;;1999.90;999.90;;;;;;;21.93;70.87;98642.09;4964365;28;20066;-74
2022/10/16 10:41:09;;;;;;;1999.90;999.90;;;;;;;22.00;70.55;98630.34;4979374;28;20128;-75
2022/10/16 10:43:42;;;;;;;1999.90;999.90;;;;;;;22.62;66.55;98632.50;4972292;28;20034;-74
2022/10/16 10:46:18;;;;;;;1999.90;999.90;;;;;;;22.55;67.19;98627.56;4981013;28;20035;-73
2022/10/16 10:48:51;;;;;;;1999.90;999.90;;;;;;;22.39;68.05;98624.75;4972016;28;20153;-74
2022/10/16 10:51:31;;;;;;;1999.90;999.90;;;;;;;22.79;63.46;98635.81;4971993;28;20039;-74
2022/10/16 10:54:29;;;;;;;1999.90;999.90;;;;;;;22.38;64.44;98628.69;4977299;28;20026;-75
2022/10/16 10:57:22;;;;;;;1999.90;999.90;;;;;;;21.99;64.67;98615.59;4977405;28;20039;-76